sensor_id;sensor_type;location;lat;lon;timestamp;P1;durP1;ratioP1;P2;durP2;ratioP2
15818;SDS011;8010;53.986;12.106;2022-08-11T00:02:25;2.03;;;1.27;;
15818;SDS011;8010;53.986;12.106;2022-08-11T00:07:40;4.70;;;1.20;;
15818;SDS011;8010;53.986;12.106;2022-08-11T00:10:14;1.17;;;1.07;;
15818;SDS011;8010;53.986;12.106;2022-08-11T00:12:43;2.17;;;1.50;;
15818;SDS011;8010;53.986;12.106;2022-08-11T00:15:14;1.80;;;1.33;;
15818;SDS011;8010;53.986;12.106;2022-08-11T00:17:40;2.80;;;1.43;;
15818;SDS011;8010;53.986;12.106;2022-08-11T00:20:07;1.70;;;1.30;;
15818;SDS011;8010;53.986;12.106;2022-08-11T00:22:36;1.53;;;1.20;;
15818;SDS011;8010;53.986;12.106;2022-08-11T00:25:14;1.53;;;1.40;;
15818;SDS011;8010;53.986;12.106;2022-08-11T00:27:44;2.87;;;1.40;;
15818;SDS011;8010;53.986;12.106;2022-08-11T00:30:11;2.40;;;1.27;;
15818;SDS011;8010;53.986;12.106;2022-08-11T00:32:40;1.63;;;1.50;;
15818;SDS011;8010;53.986;12.106;2022-08-11T00:35:10;2.90;;;1.40;;
15818;SDS011;8010;53.986;12.106;2022-08-11T00:37:38;2.03;;;1.67;;
15818;SDS011;8010;53.986;12.106;2022-08-11T00:40:14;1.70;;;1.30;;
15818;SDS011;8010;53.986;12.106;2022-08-11T00:45:40;1.77;;;1.37;;
15818;SDS011;8010;53.986;12.106;2022-08-11T00:48:13;2.10;;;1.53;;
15818;SDS011;8010;53.986;12.106;2022-08-11T00:51:09;2.40;;;1.60;;
15818;SDS011;8010;53.986;12.106;2022-08-11T00:53:59;3.87;;;1.73;;
15818;SDS011;8010;53.986;12.106;2022-08-11T00:56:45;1.30;;;1.20;;
15818;SDS011;8010;53.986;12.106;2022-08-11T01:22:02;4.30;;;1.37;;
15818;SDS011;8010;53.986;12.106;2022-08-11T01:24:54;1.97;;;1.50;;
15818;SDS011;8010;53.986;12.106;2022-08-11T01:27:49;1.93;;;1.40;;
15818;SDS011;8010;53.986;12.106;2022-08-11T01:30:47;1.80;;;1.30;;
15818;SDS011;8010;53.986;12.106;2022-08-11T01:48:07;1.40;;;1.30;;
15818;SDS011;8010;53.986;12.106;2022-08-11T01:51:16;1.70;;;1.60;;
15818;SDS011;8010;53.986;12.106;2022-08-11T01:54:04;1.40;;;1.30;;
15818;SDS011;8010;53.986;12.106;2022-08-11T01:56:39;1.97;;;1.47;;
15818;SDS011;8010;53.986;12.106;2022-08-11T02:04:28;2.07;;;1.37;;
15818;SDS011;8010;53.986;12.106;2022-08-11T02:12:52;2.30;;;1.47;;
15818;SDS011;8010;53.986;12.106;2022-08-11T02:15:28;3.00;;;1.37;;
15818;SDS011;8010;53.986;12.106;2022-08-11T02:21:17;4.70;;;1.60;;
15818;SDS011;8010;53.986;12.106;2022-08-11T02:24:10;1.80;;;1.30;;
15818;SDS011;8010;53.986;12.106;2022-08-11T02:26:45;2.87;;;1.60;;
15818;SDS011;8010;53.986;12.106;2022-08-11T02:32:36;2.13;;;1.50;;
15818;SDS011;8010;53.986;12.106;2022-08-11T02:35:37;3.87;;;1.63;;
15818;SDS011;8010;53.986;12.106;2022-08-11T02:38:16;1.70;;;1.40;;
15818;SDS011;8010;53.986;12.106;2022-08-11T02:44:36;3.60;;;2.00;;
15818;SDS011;8010;53.986;12.106;2022-08-11T02:50:46;2.40;;;1.80;;
15818;SDS011;8010;53.986;12.106;2022-08-11T02:59:30;2.10;;;1.60;;
15818;SDS011;8010;53.986;12.106;2022-08-11T03:02:17;2.03;;;1.63;;
15818;SDS011;8010;53.986;12.106;2022-08-11T03:10:48;2.83;;;1.60;;
15818;SDS011;8010;53.986;12.106;2022-08-11T03:16:55;2.10;;;1.77;;
15818;SDS011;8010;53.986;12.106;2022-08-11T03:25:31;2.10;;;1.50;;
15818;SDS011;8010;53.986;12.106;2022-08-11T03:28:13;1.83;;;1.37;;
15818;SDS011;8010;53.986;12.106;2022-08-11T03:33:31;2.30;;;1.30;;
15818;SDS011;8010;53.986;12.106;2022-08-11T03:39:17;2.63;;;1.40;;
15818;SDS011;8010;53.986;12.106;2022-08-11T03:44:57;1.70;;;1.27;;
15818;SDS011;8010;53.986;12.106;2022-08-11T03:47:33;1.40;;;1.30;;
15818;SDS011;8010;53.986;12.106;2022-08-11T03:55:22;2.83;;;1.50;;
15818;SDS011;8010;53.986;12.106;2022-08-11T03:58:17;1.97;;;1.60;;
15818;SDS011;8010;53.986;12.106;2022-08-11T04:03:51;2.57;;;2.30;;
15818;SDS011;8010;53.986;12.106;2022-08-11T04:32:25;4.27;;;2.20;;
15818;SDS011;8010;53.986;12.106;2022-08-11T04:58:21;7.17;;;2.00;;
15818;SDS011;8010;53.986;12.106;2022-08-11T05:16:28;4.13;;;2.23;;
15818;SDS011;8010;53.986;12.106;2022-08-11T05:19:17;2.60;;;2.23;;
15818;SDS011;8010;53.986;12.106;2022-08-11T05:22:02;2.97;;;2.20;;
15818;SDS011;8010;53.986;12.106;2022-08-11T05:24:55;4.50;;;2.53;;
15818;SDS011;8010;53.986;12.106;2022-08-11T05:27:53;2.53;;;1.93;;
15818;SDS011;8010;53.986;12.106;2022-08-11T05:30:47;2.80;;;2.00;;
15818;SDS011;8010;53.986;12.106;2022-08-11T05:33:48;4.00;;;2.27;;
15818;SDS011;8010;53.986;12.106;2022-08-11T05:36:36;4.63;;;2.53;;
15818;SDS011;8010;53.986;12.106;2022-08-11T05:39:14;3.77;;;2.50;;
15818;SDS011;8010;53.986;12.106;2022-08-11T05:42:00;4.63;;;2.80;;
15818;SDS011;8010;53.986;12.106;2022-08-11T05:44:47;3.47;;;2.30;;
15818;SDS011;8010;53.986;12.106;2022-08-11T05:47:33;6.30;;;2.60;;
15818;SDS011;8010;53.986;12.106;2022-08-11T05:50:19;4.60;;;2.53;;
15818;SDS011;8010;53.986;12.106;2022-08-11T05:53:04;3.53;;;2.37;;
15818;SDS011;8010;53.986;12.106;2022-08-11T05:55:54;3.70;;;2.43;;
15818;SDS011;8010;53.986;12.106;2022-08-11T05:58:44;3.97;;;2.70;;
15818;SDS011;8010;53.986;12.106;2022-08-11T06:04:07;2.43;;;2.20;;
15818;SDS011;8010;53.986;12.106;2022-08-11T06:09:20;5.33;;;2.30;;
15818;SDS011;8010;53.986;12.106;2022-08-11T06:11:51;3.93;;;2.50;;
15818;SDS011;8010;53.986;12.106;2022-08-11T06:14:18;3.37;;;2.03;;
15818;SDS011;8010;53.986;12.106;2022-08-11T06:16:47;2.50;;;1.87;;
15818;SDS011;8010;53.986;12.106;2022-08-11T06:19:13;4.27;;;2.13;;
15818;SDS011;8010;53.986;12.106;2022-08-11T06:21:43;2.33;;;1.90;;
15818;SDS011;8010;53.986;12.106;2022-08-11T06:24:12;2.10;;;1.90;;
15818;SDS011;8010;53.986;12.106;2022-08-11T06:26:46;3.23;;;1.90;;
15818;SDS011;8010;53.986;12.106;2022-08-11T06:29:14;1.67;;;1.40;;
15818;SDS011;8010;53.986;12.106;2022-08-11T06:31:49;3.73;;;1.47;;
15818;SDS011;8010;53.986;12.106;2022-08-11T06:34:31;2.23;;;1.30;;
15818;SDS011;8010;53.986;12.106;2022-08-11T06:47:45;1.87;;;1.20;;
15818;SDS011;8010;53.986;12.106;2022-08-11T06:50:15;1.40;;;1.30;;
15818;SDS011;8010;53.986;12.106;2022-08-11T06:53:05;1.93;;;1.30;;
15818;SDS011;8010;53.986;12.106;2022-08-11T06:55:34;1.50;;;1.40;;
15818;SDS011;8010;53.986;12.106;2022-08-11T06:58:21;2.13;;;1.63;;
15818;SDS011;8010;53.986;12.106;2022-08-11T07:01:10;1.50;;;1.20;;
15818;SDS011;8010;53.986;12.106;2022-08-11T07:03:42;2.37;;;1.20;;
15818;SDS011;8010;53.986;12.106;2022-08-11T07:12:17;1.83;;;1.23;;
15818;SDS011;8010;53.986;12.106;2022-08-11T07:15:22;1.40;;;1.10;;
15818;SDS011;8010;53.986;12.106;2022-08-11T07:18:07;3.23;;;1.20;;
15818;SDS011;8010;53.986;12.106;2022-08-11T07:21:09;8.50;;;2.63;;
15818;SDS011;8010;53.986;12.106;2022-08-11T07:24:19;6.10;;;2.03;;
15818;SDS011;8010;53.986;12.106;2022-08-11T07:27:08;2.67;;;1.40;;
15818;SDS011;8010;53.986;12.106;2022-08-11T07:29:57;1.90;;;1.30;;
15818;SDS011;8010;53.986;12.106;2022-08-11T07:32:27;1.53;;;1.30;;
15818;SDS011;8010;53.986;12.106;2022-08-11T07:35:10;2.20;;;1.47;;
15818;SDS011;8010;53.986;12.106;2022-08-11T07:37:38;2.73;;;1.30;;
15818;SDS011;8010;53.986;12.106;2022-08-11T07:40:07;2.13;;;1.70;;
15818;SDS011;8010;53.986;12.106;2022-08-11T07:42:34;1.50;;;1.07;;
15818;SDS011;8010;53.986;12.106;2022-08-11T07:45:00;2.40;;;1.23;;
15818;SDS011;8010;53.986;12.106;2022-08-11T07:47:47;1.33;;;1.10;;
15818;SDS011;8010;53.986;12.106;2022-08-11T07:50:32;1.40;;;1.10;;
15818;SDS011;8010;53.986;12.106;2022-08-11T07:53:18;1.33;;;1.00;;
15818;SDS011;8010;53.986;12.106;2022-08-11T07:55:47;1.83;;;0.90;;
15818;SDS011;8010;53.986;12.106;2022-08-11T07:58:13;1.13;;;1.00;;
15818;SDS011;8010;53.986;12.106;2022-08-11T08:00:59;1.63;;;0.90;;
15818;SDS011;8010;53.986;12.106;2022-08-11T08:03:43;1.60;;;0.90;;
15818;SDS011;8010;53.986;12.106;2022-08-11T08:06:29;1.43;;;0.90;;
15818;SDS011;8010;53.986;12.106;2022-08-11T08:09:18;1.50;;;0.90;;
15818;SDS011;8010;53.986;12.106;2022-08-11T08:12:04;1.13;;;0.83;;
15818;SDS011;8010;53.986;12.106;2022-08-11T08:14:50;1.17;;;0.80;;
15818;SDS011;8010;53.986;12.106;2022-08-11T08:17:36;2.97;;;0.90;;
15818;SDS011;8010;53.986;12.106;2022-08-11T08:20:20;1.73;;;0.93;;
15818;SDS011;8010;53.986;12.106;2022-08-11T08:22:49;1.50;;;0.80;;
15818;SDS011;8010;53.986;12.106;2022-08-11T08:25:22;2.47;;;1.10;;
15818;SDS011;8010;53.986;12.106;2022-08-11T08:27:52;1.30;;;0.90;;
15818;SDS011;8010;53.986;12.106;2022-08-11T08:30:20;1.17;;;0.80;;
15818;SDS011;8010;53.986;12.106;2022-08-11T08:33:05;1.53;;;0.80;;
15818;SDS011;8010;53.986;12.106;2022-08-11T08:35:31;1.90;;;0.83;;
15818;SDS011;8010;53.986;12.106;2022-08-11T08:37:59;0.90;;;0.70;;
15818;SDS011;8010;53.986;12.106;2022-08-11T08:40:25;2.60;;;0.97;;
15818;SDS011;8010;53.986;12.106;2022-08-11T08:42:55;1.37;;;0.87;;
15818;SDS011;8010;53.986;12.106;2022-08-11T08:45:22;2.80;;;0.90;;
15818;SDS011;8010;53.986;12.106;2022-08-11T08:50:47;1.50;;;0.83;;
15818;SDS011;8010;53.986;12.106;2022-08-11T08:53:38;0.93;;;0.80;;
15818;SDS011;8010;53.986;12.106;2022-08-11T08:56:08;1.70;;;0.70;;
15818;SDS011;8010;53.986;12.106;2022-08-11T08:58:35;1.30;;;0.80;;
15818;SDS011;8010;53.986;12.106;2022-08-11T09:01:02;1.23;;;0.60;;
15818;SDS011;8010;53.986;12.106;2022-08-11T09:03:29;0.97;;;0.60;;
15818;SDS011;8010;53.986;12.106;2022-08-11T09:05:56;1.53;;;0.80;;
15818;SDS011;8010;53.986;12.106;2022-08-11T09:08:22;3.50;;;0.90;;
15818;SDS011;8010;53.986;12.106;2022-08-11T09:10:48;2.60;;;1.00;;
15818;SDS011;8010;53.986;12.106;2022-08-11T09:13:35;0.80;;;0.80;;
15818;SDS011;8010;53.986;12.106;2022-08-11T09:16:02;1.40;;;0.80;;
15818;SDS011;8010;53.986;12.106;2022-08-11T09:18:31;3.93;;;0.90;;
15818;SDS011;8010;53.986;12.106;2022-08-11T09:20:57;1.67;;;1.00;;
15818;SDS011;8010;53.986;12.106;2022-08-11T09:23:26;1.00;;;0.70;;
15818;SDS011;8010;53.986;12.106;2022-08-11T09:26:10;2.07;;;0.80;;
15818;SDS011;8010;53.986;12.106;2022-08-11T09:28:55;1.07;;;0.90;;
15818;SDS011;8010;53.986;12.106;2022-08-11T09:31:22;1.40;;;1.03;;
15818;SDS011;8010;53.986;12.106;2022-08-11T09:33:51;2.57;;;0.90;;
15818;SDS011;8010;53.986;12.106;2022-08-11T09:36:18;1.13;;;0.90;;
15818;SDS011;8010;53.986;12.106;2022-08-11T09:39:03;1.83;;;0.90;;
15818;SDS011;8010;53.986;12.106;2022-08-11T09:41:48;2.07;;;0.70;;
15818;SDS011;8010;53.986;12.106;2022-08-11T09:44:14;0.80;;;0.77;;
15818;SDS011;8010;53.986;12.106;2022-08-11T09:46:58;0.80;;;0.80;;
15818;SDS011;8010;53.986;12.106;2022-08-11T09:49:25;2.30;;;1.13;;
15818;SDS011;8010;53.986;12.106;2022-08-11T09:51:52;1.23;;;0.90;;
15818;SDS011;8010;53.986;12.106;2022-08-11T09:54:18;2.50;;;1.53;;
15818;SDS011;8010;53.986;12.106;2022-08-11T09:56:47;1.10;;;0.80;;
15818;SDS011;8010;53.986;12.106;2022-08-11T09:59:31;1.40;;;1.00;;
15818;SDS011;8010;53.986;12.106;2022-08-11T10:01:57;1.40;;;0.73;;
15818;SDS011;8010;53.986;12.106;2022-08-11T10:04:34;1.30;;;0.80;;
15818;SDS011;8010;53.986;12.106;2022-08-11T10:07:05;1.70;;;0.70;;
15818;SDS011;8010;53.986;12.106;2022-08-11T10:09:35;2.43;;;1.00;;
15818;SDS011;8010;53.986;12.106;2022-08-11T10:12:11;0.90;;;0.70;;
15818;SDS011;8010;53.986;12.106;2022-08-11T10:14:43;1.93;;;1.00;;
15818;SDS011;8010;53.986;12.106;2022-08-11T10:17:33;1.07;;;0.67;;
15818;SDS011;8010;53.986;12.106;2022-08-11T10:20:00;1.77;;;0.80;;
15818;SDS011;8010;53.986;12.106;2022-08-11T10:22:32;1.07;;;0.80;;
15818;SDS011;8010;53.986;12.106;2022-08-11T10:25:17;1.63;;;0.90;;
15818;SDS011;8010;53.986;12.106;2022-08-11T10:28:03;1.17;;;0.80;;
15818;SDS011;8010;53.986;12.106;2022-08-11T10:30:32;2.00;;;0.83;;
15818;SDS011;8010;53.986;12.106;2022-08-11T10:33:17;2.07;;;0.90;;
15818;SDS011;8010;53.986;12.106;2022-08-11T10:36:02;4.07;;;1.30;;
15818;SDS011;8010;53.986;12.106;2022-08-11T10:38:30;2.00;;;0.77;;
15818;SDS011;8010;53.986;12.106;2022-08-11T10:40:56;2.07;;;1.00;;
15818;SDS011;8010;53.986;12.106;2022-08-11T10:43:40;1.52;;;0.88;;
15818;SDS011;8010;53.986;12.106;2022-08-11T10:46:08;1.57;;;1.00;;
15818;SDS011;8010;53.986;12.106;2022-08-11T10:48:53;1.10;;;0.90;;
15818;SDS011;8010;53.986;12.106;2022-08-11T10:51:21;1.57;;;0.90;;
15818;SDS011;8010;53.986;12.106;2022-08-11T10:54:08;1.17;;;0.90;;
15818;SDS011;8010;53.986;12.106;2022-08-11T10:56:53;1.35;;;1.00;;
15818;SDS011;8010;53.986;12.106;2022-08-11T10:59:39;0.70;;;0.70;;
15818;SDS011;8010;53.986;12.106;2022-08-11T11:02:08;1.47;;;1.00;;
15818;SDS011;8010;53.986;12.106;2022-08-11T11:10:24;1.25;;;0.90;;
15818;SDS011;8010;53.986;12.106;2022-08-11T11:12:52;1.02;;;0.90;;
15818;SDS011;8010;53.986;12.106;2022-08-11T11:15:40;1.65;;;0.90;;
15818;SDS011;8010;53.986;12.106;2022-08-11T11:18:28;1.42;;;0.90;;
15818;SDS011;8010;53.986;12.106;2022-08-11T11:21:04;2.15;;;1.00;;
15818;SDS011;8010;53.986;12.106;2022-08-11T11:23:35;1.20;;;0.90;;
15818;SDS011;8010;53.986;12.106;2022-08-11T11:32:05;1.58;;;0.80;;
15818;SDS011;8010;53.986;12.106;2022-08-11T11:35:01;1.52;;;1.00;;
15818;SDS011;8010;53.986;12.106;2022-08-11T11:37:47;2.20;;;1.13;;
15818;SDS011;8010;53.986;12.106;2022-08-11T11:40:15;1.90;;;1.00;;
15818;SDS011;8010;53.986;12.106;2022-08-11T11:42:46;1.25;;;1.00;;
15818;SDS011;8010;53.986;12.106;2022-08-11T11:45:15;1.90;;;1.00;;
15818;SDS011;8010;53.986;12.106;2022-08-11T11:47:43;1.33;;;0.90;;
15818;SDS011;8010;53.986;12.106;2022-08-11T11:50:09;1.08;;;0.90;;
15818;SDS011;8010;53.986;12.106;2022-08-11T11:52:37;1.80;;;1.00;;
15818;SDS011;8010;53.986;12.106;2022-08-11T11:55:04;1.25;;;0.80;;
15818;SDS011;8010;53.986;12.106;2022-08-11T11:57:31;1.85;;;1.10;;
15818;SDS011;8010;53.986;12.106;2022-08-11T12:00:15;1.40;;;1.02;;
15818;SDS011;8010;53.986;12.106;2022-08-11T12:03:02;2.45;;;1.20;;
15818;SDS011;8010;53.986;12.106;2022-08-11T12:05:32;2.65;;;1.10;;
15818;SDS011;8010;53.986;12.106;2022-08-11T12:08:00;2.80;;;1.40;;
15818;SDS011;8010;53.986;12.106;2022-08-11T12:13:10;1.05;;;0.85;;
15818;SDS011;8010;53.986;12.106;2022-08-11T12:15:54;2.35;;;0.88;;
15818;SDS011;8010;53.986;12.106;2022-08-11T12:18:25;1.20;;;1.00;;
15818;SDS011;8010;53.986;12.106;2022-08-11T12:20:50;2.35;;;1.17;;
15818;SDS011;8010;53.986;12.106;2022-08-11T12:23:16;1.83;;;1.20;;
15818;SDS011;8010;53.986;12.106;2022-08-11T12:26:00;3.00;;;1.30;;
15818;SDS011;8010;53.986;12.106;2022-08-11T12:28:45;1.73;;;1.20;;
15818;SDS011;8010;53.986;12.106;2022-08-11T12:31:12;1.70;;;0.82;;
15818;SDS011;8010;53.986;12.106;2022-08-11T12:33:38;3.65;;;1.10;;
15818;SDS011;8010;53.986;12.106;2022-08-11T12:36:05;2.47;;;0.80;;
15818;SDS011;8010;53.986;12.106;2022-08-11T12:38:33;1.42;;;0.90;;
15818;SDS011;8010;53.986;12.106;2022-08-11T12:41:00;2.67;;;1.20;;
15818;SDS011;8010;53.986;12.106;2022-08-11T12:43:45;1.92;;;1.00;;
15818;SDS011;8010;53.986;12.106;2022-08-11T12:46:31;1.17;;;0.93;;
15818;SDS011;8010;53.986;12.106;2022-08-11T12:48:59;2.90;;;0.90;;
15818;SDS011;8010;53.986;12.106;2022-08-11T12:51:51;5.13;;;1.15;;
15818;SDS011;8010;53.986;12.106;2022-08-11T12:54:30;3.88;;;1.30;;
15818;SDS011;8010;53.986;12.106;2022-08-11T12:57:24;3.35;;;1.15;;
15818;SDS011;8010;53.986;12.106;2022-08-11T13:00:11;5.75;;;1.40;;
15818;SDS011;8010;53.986;12.106;2022-08-11T13:02:57;4.72;;;1.30;;
15818;SDS011;8010;53.986;12.106;2022-08-11T13:05:42;1.65;;;1.08;;
15818;SDS011;8010;53.986;12.106;2022-08-11T13:08:08;6.30;;;1.20;;
15818;SDS011;8010;53.986;12.106;2022-08-11T13:10:34;5.28;;;1.10;;
15818;SDS011;8010;53.986;12.106;2022-08-11T13:13:20;6.70;;;1.40;;
15818;SDS011;8010;53.986;12.106;2022-08-11T13:15:47;2.15;;;0.93;;
15818;SDS011;8010;53.986;12.106;2022-08-11T13:18:14;1.33;;;1.00;;
15818;SDS011;8010;53.986;12.106;2022-08-11T13:20:41;2.20;;;1.35;;
15818;SDS011;8010;53.986;12.106;2022-08-11T13:23:08;2.50;;;1.35;;
15818;SDS011;8010;53.986;12.106;2022-08-11T13:25:37;4.22;;;0.98;;
15818;SDS011;8010;53.986;12.106;2022-08-11T13:28:03;1.85;;;1.08;;
15818;SDS011;8010;53.986;12.106;2022-08-11T13:30:30;6.68;;;1.60;;
15818;SDS011;8010;53.986;12.106;2022-08-11T13:33:15;2.95;;;1.05;;
15818;SDS011;8010;53.986;12.106;2022-08-11T13:35:41;4.10;;;1.20;;
15818;SDS011;8010;53.986;12.106;2022-08-11T13:38:10;1.77;;;1.17;;
15818;SDS011;8010;53.986;12.106;2022-08-11T13:40:37;2.83;;;1.10;;
15818;SDS011;8010;53.986;12.106;2022-08-11T13:43:04;1.60;;;1.13;;
15818;SDS011;8010;53.986;12.106;2022-08-11T13:45:31;2.05;;;1.10;;
15818;SDS011;8010;53.986;12.106;2022-08-11T13:47:58;3.20;;;0.90;;
15818;SDS011;8010;53.986;12.106;2022-08-11T13:50:25;1.98;;;1.00;;
15818;SDS011;8010;53.986;12.106;2022-08-11T13:53:11;1.92;;;1.10;;
15818;SDS011;8010;53.986;12.106;2022-08-11T13:55:39;3.83;;;1.15;;
15818;SDS011;8010;53.986;12.106;2022-08-11T13:58:06;1.75;;;1.25;;
15818;SDS011;8010;53.986;12.106;2022-08-11T14:00:34;2.65;;;1.02;;
15818;SDS011;8010;53.986;12.106;2022-08-11T14:03:00;0.95;;;0.70;;
15818;SDS011;8010;53.986;12.106;2022-08-11T14:05:28;3.03;;;1.02;;
15818;SDS011;8010;53.986;12.106;2022-08-11T14:08:02;4.97;;;1.13;;
15818;SDS011;8010;53.986;12.106;2022-08-11T14:10:31;1.95;;;1.20;;
15818;SDS011;8010;53.986;12.106;2022-08-11T14:13:00;1.23;;;1.02;;
15818;SDS011;8010;53.986;12.106;2022-08-11T14:15:49;2.28;;;1.60;;
15818;SDS011;8010;53.986;12.106;2022-08-11T14:18:17;2.17;;;1.10;;
15818;SDS011;8010;53.986;12.106;2022-08-11T14:20:46;5.00;;;1.48;;
15818;SDS011;8010;53.986;12.106;2022-08-11T14:23:52;1.40;;;1.10;;
15818;SDS011;8010;53.986;12.106;2022-08-11T14:26:23;3.88;;;1.20;;
15818;SDS011;8010;53.986;12.106;2022-08-11T14:28:54;5.95;;;0.98;;
15818;SDS011;8010;53.986;12.106;2022-08-11T14:31:27;5.13;;;0.90;;
15818;SDS011;8010;53.986;12.106;2022-08-11T14:33:54;3.28;;;0.70;;
15818;SDS011;8010;53.986;12.106;2022-08-11T14:36:22;1.40;;;1.10;;
15818;SDS011;8010;53.986;12.106;2022-08-11T14:38:48;8.27;;;1.38;;
15818;SDS011;8010;53.986;12.106;2022-08-11T14:41:14;1.85;;;1.10;;
15818;SDS011;8010;53.986;12.106;2022-08-11T14:44:00;1.60;;;1.00;;
15818;SDS011;8010;53.986;12.106;2022-08-11T14:46:45;1.00;;;0.82;;
15818;SDS011;8010;53.986;12.106;2022-08-11T14:49:30;2.42;;;0.98;;
15818;SDS011;8010;53.986;12.106;2022-08-11T14:52:02;2.58;;;0.88;;
15818;SDS011;8010;53.986;12.106;2022-08-11T14:54:30;2.33;;;0.90;;
15818;SDS011;8010;53.986;12.106;2022-08-11T14:57:18;1.15;;;0.80;;
15818;SDS011;8010;53.986;12.106;2022-08-11T14:59:45;1.25;;;0.90;;
15818;SDS011;8010;53.986;12.106;2022-08-11T15:02:12;0.98;;;0.90;;
15818;SDS011;8010;53.986;12.106;2022-08-11T15:04:57;3.72;;;1.17;;
15818;SDS011;8010;53.986;12.106;2022-08-11T15:07:25;4.85;;;1.02;;
15818;SDS011;8010;53.986;12.106;2022-08-11T15:10:04;1.05;;;0.90;;
15818;SDS011;8010;53.986;12.106;2022-08-11T15:12:32;2.85;;;1.05;;
15818;SDS011;8010;53.986;12.106;2022-08-11T15:14:59;0.90;;;0.85;;
15818;SDS011;8010;53.986;12.106;2022-08-11T15:17:44;1.08;;;0.88;;
15818;SDS011;8010;53.986;12.106;2022-08-11T15:20:13;5.13;;;1.10;;
15818;SDS011;8010;53.986;12.106;2022-08-11T15:22:59;3.50;;;1.20;;
15818;SDS011;8010;53.986;12.106;2022-08-11T15:25:45;3.30;;;1.08;;
15818;SDS011;8010;53.986;12.106;2022-08-11T15:28:26;1.88;;;1.10;;
15818;SDS011;8010;53.986;12.106;2022-08-11T15:31:12;1.48;;;1.00;;
15818;SDS011;8010;53.986;12.106;2022-08-11T15:33:53;1.90;;;1.10;;
15818;SDS011;8010;53.986;12.106;2022-08-11T15:36:40;1.67;;;1.10;;
15818;SDS011;8010;53.986;12.106;2022-08-11T15:39:30;3.10;;;1.00;;
15818;SDS011;8010;53.986;12.106;2022-08-11T15:42:03;6.07;;;1.05;;
15818;SDS011;8010;53.986;12.106;2022-08-11T15:44:54;2.20;;;0.90;;
15818;SDS011;8010;53.986;12.106;2022-08-11T15:47:43;4.18;;;1.20;;
15818;SDS011;8010;53.986;12.106;2022-08-11T15:50:21;1.03;;;1.00;;
15818;SDS011;8010;53.986;12.106;2022-08-11T15:53:08;3.22;;;1.10;;
15818;SDS011;8010;53.986;12.106;2022-08-11T15:55:41;2.45;;;0.80;;
15818;SDS011;8010;53.986;12.106;2022-08-11T15:58:08;5.47;;;1.30;;
15818;SDS011;8010;53.986;12.106;2022-08-11T16:00:56;4.57;;;0.95;;
15818;SDS011;8010;53.986;12.106;2022-08-11T16:03:44;2.67;;;1.15;;
15818;SDS011;8010;53.986;12.106;2022-08-11T16:06:34;1.52;;;1.10;;
15818;SDS011;8010;53.986;12.106;2022-08-11T16:09:06;3.88;;;0.82;;
15818;SDS011;8010;53.986;12.106;2022-08-11T16:11:33;1.35;;;1.25;;
15818;SDS011;8010;53.986;12.106;2022-08-11T16:14:02;4.20;;;1.20;;
15818;SDS011;8010;53.986;12.106;2022-08-11T16:17:08;1.52;;;1.10;;
15818;SDS011;8010;53.986;12.106;2022-08-11T16:19:36;1.85;;;1.05;;
15818;SDS011;8010;53.986;12.106;2022-08-11T16:22:06;3.00;;;1.20;;
15818;SDS011;8010;53.986;12.106;2022-08-11T16:24:36;2.78;;;1.20;;
15818;SDS011;8010;53.986;12.106;2022-08-11T16:27:08;1.25;;;1.15;;
15818;SDS011;8010;53.986;12.106;2022-08-11T16:29:36;2.42;;;1.30;;
15818;SDS011;8010;53.986;12.106;2022-08-11T16:32:07;3.47;;;1.38;;
15818;SDS011;8010;53.986;12.106;2022-08-11T16:34:46;2.05;;;1.40;;
15818;SDS011;8010;53.986;12.106;2022-08-11T16:37:33;2.03;;;1.23;;
15818;SDS011;8010;53.986;12.106;2022-08-11T16:40:19;2.10;;;1.30;;
15818;SDS011;8010;53.986;12.106;2022-08-11T16:42:46;3.57;;;1.20;;
15818;SDS011;8010;53.986;12.106;2022-08-11T16:45:32;1.80;;;1.33;;
15818;SDS011;8010;53.986;12.106;2022-08-11T16:48:18;2.03;;;1.23;;
15818;SDS011;8010;53.986;12.106;2022-08-11T16:50:45;3.27;;;0.90;;
15818;SDS011;8010;53.986;12.106;2022-08-11T16:53:11;3.23;;;1.30;;
15818;SDS011;8010;53.986;12.106;2022-08-11T16:55:39;1.67;;;1.30;;
15818;SDS011;8010;53.986;12.106;2022-08-11T16:58:04;1.87;;;1.30;;
15818;SDS011;8010;53.986;12.106;2022-08-11T17:00:50;1.10;;;1.00;;
15818;SDS011;8010;53.986;12.106;2022-08-11T17:03:17;1.60;;;1.30;;
15818;SDS011;8010;53.986;12.106;2022-08-11T17:06:01;2.37;;;1.30;;
15818;SDS011;8010;53.986;12.106;2022-08-11T17:08:52;4.43;;;1.20;;
15818;SDS011;8010;53.986;12.106;2022-08-11T17:11:38;8.93;;;2.13;;
15818;SDS011;8010;53.986;12.106;2022-08-11T17:14:37;2.70;;;1.37;;
15818;SDS011;8010;53.986;12.106;2022-08-11T17:17:05;3.20;;;1.10;;
15818;SDS011;8010;53.986;12.106;2022-08-11T17:19:36;3.83;;;1.20;;
15818;SDS011;8010;53.986;12.106;2022-08-11T17:22:08;2.23;;;1.17;;
15818;SDS011;8010;53.986;12.106;2022-08-11T17:24:52;4.33;;;1.10;;
15818;SDS011;8010;53.986;12.106;2022-08-11T17:27:19;1.60;;;0.90;;
15818;SDS011;8010;53.986;12.106;2022-08-11T17:29:52;2.77;;;1.10;;
15818;SDS011;8010;53.986;12.106;2022-08-11T17:32:22;4.20;;;1.60;;
15818;SDS011;8010;53.986;12.106;2022-08-11T17:35:18;3.33;;;1.10;;
15818;SDS011;8010;53.986;12.106;2022-08-11T17:38:04;3.90;;;0.90;;
15818;SDS011;8010;53.986;12.106;2022-08-11T17:40:31;5.90;;;1.57;;
15818;SDS011;8010;53.986;12.106;2022-08-11T17:43:00;4.80;;;1.10;;
15818;SDS011;8010;53.986;12.106;2022-08-11T17:45:45;11.47;;;1.43;;
15818;SDS011;8010;53.986;12.106;2022-08-11T17:48:31;2.90;;;1.40;;
15818;SDS011;8010;53.986;12.106;2022-08-11T17:51:07;2.03;;;1.10;;
15818;SDS011;8010;53.986;12.106;2022-08-11T17:53:41;2.50;;;1.10;;
15818;SDS011;8010;53.986;12.106;2022-08-11T17:56:29;6.60;;;1.13;;
15818;SDS011;8010;53.986;12.106;2022-08-11T17:59:13;3.37;;;1.20;;
15818;SDS011;8010;53.986;12.106;2022-08-11T18:01:59;2.10;;;1.20;;
15818;SDS011;8010;53.986;12.106;2022-08-11T18:04:47;1.63;;;1.00;;
15818;SDS011;8010;53.986;12.106;2022-08-11T18:07:15;3.93;;;0.90;;
15818;SDS011;8010;53.986;12.106;2022-08-11T18:10:05;2.57;;;1.00;;
15818;SDS011;8010;53.986;12.106;2022-08-11T18:12:51;4.30;;;1.10;;
15818;SDS011;8010;53.986;12.106;2022-08-11T18:15:37;5.00;;;1.27;;
15818;SDS011;8010;53.986;12.106;2022-08-11T18:18:23;2.80;;;0.90;;
15818;SDS011;8010;53.986;12.106;2022-08-11T18:21:08;4.43;;;1.00;;
15818;SDS011;8010;53.986;12.106;2022-08-11T18:23:56;4.57;;;1.00;;
15818;SDS011;8010;53.986;12.106;2022-08-11T18:26:47;3.50;;;0.90;;
15818;SDS011;8010;53.986;12.106;2022-08-11T18:29:33;2.50;;;1.00;;
15818;SDS011;8010;53.986;12.106;2022-08-11T18:32:21;2.00;;;0.97;;
15818;SDS011;8010;53.986;12.106;2022-08-11T18:35:06;2.03;;;1.10;;
15818;SDS011;8010;53.986;12.106;2022-08-11T18:37:53;3.33;;;1.00;;
15818;SDS011;8010;53.986;12.106;2022-08-11T18:40:40;1.00;;;0.83;;
15818;SDS011;8010;53.986;12.106;2022-08-11T18:43:27;1.57;;;1.00;;
15818;SDS011;8010;53.986;12.106;2022-08-11T18:46:15;1.37;;;1.07;;
15818;SDS011;8010;53.986;12.106;2022-08-11T18:49:04;1.70;;;1.03;;
15818;SDS011;8010;53.986;12.106;2022-08-11T18:51:52;2.10;;;0.80;;
15818;SDS011;8010;53.986;12.106;2022-08-11T18:54:39;1.60;;;1.23;;
15818;SDS011;8010;53.986;12.106;2022-08-11T18:57:25;2.20;;;0.80;;
15818;SDS011;8010;53.986;12.106;2022-08-11T19:00:10;1.00;;;0.90;;
15818;SDS011;8010;53.986;12.106;2022-08-11T19:02:55;1.50;;;0.90;;
15818;SDS011;8010;53.986;12.106;2022-08-11T19:05:40;1.37;;;0.80;;
15818;SDS011;8010;53.986;12.106;2022-08-11T19:08:28;2.47;;;1.20;;
15818;SDS011;8010;53.986;12.106;2022-08-11T19:11:16;1.63;;;0.90;;
15818;SDS011;8010;53.986;12.106;2022-08-11T19:14:02;2.40;;;1.00;;
15818;SDS011;8010;53.986;12.106;2022-08-11T19:16:47;2.23;;;1.20;;
15818;SDS011;8010;53.986;12.106;2022-08-11T19:19:34;2.63;;;1.00;;
15818;SDS011;8010;53.986;12.106;2022-08-11T19:22:20;2.33;;;0.80;;